Time;durP1;ratioP1;P1;durP2;ratioP2;P2;SDS_P1;SDS_P2;PMS_P1;PMS_P2;Temp;Humidity;BMP_temperature;BMP_pressure;BME280_temperature;BME280_humidity;BME280_pressure;Samples;Min_cycle;Max_cycle;Signal;HPM_P1;HPM_P2
2022/03/12 00:00:54;;;;;;;;;3.00;3.00;;;;;12.00;65.81;100900.53;5021646;28;45454;-79
2022/03/12 00:03:20;;;;;;;;;2.67;2.67;;;;;11.92;65.79;100889.38;5032784;28;45433;-79
2022/03/12 00:05:55;;;;;;;;;2.33;2.33;;;;;11.95;65.43;100890.06;5035132;28;45490;-79
2022/03/12 00:08:34;;;;;;;;;2.00;2.00;;;;;12.09;65.42;100908.13;5034975;28;45440;-79
2022/03/12 00:11:02;;;;;;;;;2.00;2.00;;;;;11.89;65.53;100886.81;5020527;28;45410;-79
2022/03/12 00:13:28;;;;;;;;;3.00;3.00;;;;;11.84;65.64;100898.53;5015363;28;45592;-79
2022/03/12 00:15:58;;;;;;;;;0.67;0.67;;;;;12.01;65.59;100923.63;5035312;28;46033;-79
2022/03/12 00:18:30;;;;;;;;;1.00;1.00;;;;;12.01;65.18;100932.53;5024556;28;45459;-79
2022/03/12 00:21:01;;;;;;;;;2.00;2.00;;;;;11.99;65.22;100929.06;5025259;28;45538;-79
2022/03/12 00:23:29;;;;;;;;;3.00;2.00;;;;;11.93;65.06;100926.66;5015590;28;45402;-79
2022/03/12 00:25:54;;;;;;;;;2.00;2.00;;;;;11.93;65.67;100942.69;5015225;28;46447;-79
2022/03/12 00:28:20;;;;;;;;;2.00;1.67;;;;;11.79;65.10;100918.41;5015955;28;45281;-79
2022/03/12 00:30:50;;;;;;;;;2.00;2.00;;;;;11.95;65.55;100938.16;5030879;28;45536;-79
2022/03/12 00:33:20;;;;;;;;;4.00;3.00;;;;;11.89;65.19;100932.22;5035447;28;45481;-79
2022/03/12 00:35:47;;;;;;;;;1.67;1.67;;;;;11.99;65.31;100949.59;5034995;28;45410;-79
2022/03/12 00:38:14;;;;;;;;;3.00;3.00;;;;;11.93;65.26;100931.16;5034652;28;45498;-79
2022/03/12 00:40:39;;;;;;;;;1.67;1.67;;;;;12.07;64.83;100950.06;5023225;28;45428;-79
2022/03/12 00:43:05;;;;;;;;;2.67;2.00;;;;;12.13;64.48;100952.47;5014053;28;45513;-79
2022/03/12 00:45:30;;;;;;;;;1.67;1.67;;;;;12.12;64.38;100958.72;5015022;28;46014;-79
2022/03/12 00:47:55;;;;;;;;;2.67;2.67;;;;;12.16;64.49;100965.69;5015025;28;46658;-79
2022/03/12 00:50:21;;;;;;;;;2.67;1.67;;;;;12.10;64.14;100965.09;5013288;28;45417;-79
2022/03/12 00:52:46;;;;;;;;;3.00;2.00;;;;;12.12;64.24;100966.75;5016024;28;45429;-79
2022/03/12 00:55:12;;;;;;;;;2.33;2.33;;;;;12.06;64.34;100966.16;5035220;28;46020;-79
2022/03/12 00:57:37;;;;;;;;;1.67;1.67;;;;;11.94;63.82;100947.13;5033410;28;45487;-79
2022/03/12 01:00:04;;;;;;;;;2.33;2.33;;;;;12.11;64.29;100982.88;5033148;28;45341;-79
2022/03/12 01:02:29;;;;;;;;;4.67;3.33;;;;;12.07;63.80;100982.13;5019881;28;45563;-79
2022/03/12 01:04:55;;;;;;;;;4.67;2.00;;;;;12.10;64.14;100990.00;5034096;28;46769;-79
2022/03/12 01:07:21;;;;;;;;;2.00;2.00;;;;;12.00;64.20;100970.00;5034476;28;45641;-79
2022/03/12 01:10:03;;;;;;;;;;;;;;;;;;;;;
2022/03/12 01:12:29;;;;;;;;;5.00;2.00;;;;;12.04;63.97;100993.84;5033838;28;61981;-79
2022/03/12 01:14:54;;;;;;;;;2.33;2.33;;;;;12.10;64.28;100992.66;5034174;28;46177;-79
2022/03/12 01:17:21;;;;;;;;;3.67;3.00;;;;;12.15;64.00;101009.38;5034522;28;45356;-79
2022/03/12 01:19:46;;;;;;;;;3.33;3.33;;;;;12.17;64.14;101012.81;5034005;28;45318;-79
2022/03/12 01:22:14;;;;;;;;;7.00;4.00;;;;;12.06;63.33;100998.22;5034308;28;45381;-79
2022/03/12 01:24:40;;;;;;;;;3.00;3.00;;;;;12.15;64.09;101008.50;5034790;28;45347;-79
2022/03/12 01:27:05;;;;;;;;;3.33;3.33;;;;;12.01;63.51;100999.31;5031108;28;45222;-79
2022/03/12 01:29:31;;;;;;;;;1.33;1.33;;;;;12.03;63.79;100997.47;5013562;28;45509;-79
2022/03/12 01:31:56;;;;;;;;;3.00;3.00;;;;;12.01;63.65;100995.75;5013592;28;45461;-79
2022/03/12 01:34:22;;;;;;;;;2.67;2.67;;;;;11.99;63.81;101003.88;5019308;28;46039;-79
2022/03/12 01:36:47;;;;;;;;;3.00;3.00;;;;;11.98;63.88;100993.25;5034135;28;45320;-79
2022/03/12 01:39:12;;;;;;;;;1.67;1.67;;;;;12.04;63.99;101003.66;5029433;28;45400;-79
2022/03/12 01:41:40;;;;;;;;;3.00;3.00;;;;;12.02;64.13;100998.38;5015836;28;45376;-79
2022/03/12 01:44:06;;;;;;;;;3.00;1.67;;;;;12.04;63.74;101012.53;5022389;28;46458;-79
2022/03/12 01:46:39;;;;;;;;;2.67;2.67;;;;;12.03;63.64;101005.47;5027839;28;45398;-79
2022/03/12 01:49:09;;;;;;;;;2.33;2.33;;;;;11.72;63.90;100949.84;5034009;28;45627;-79
2022/03/12 01:51:37;;;;;;;;;2.33;2.33;;;;;12.04;63.92;100999.19;5034518;28;45407;-79
2022/03/12 01:54:03;;;;;;;;;3.00;1.00;;;;;12.06;63.94;101004.47;5033214;28;46012;-79
2022/03/12 01:56:29;;;;;;;;;2.67;2.67;;;;;12.07;63.80;101003.50;5033610;28;45411;-79
2022/03/12 01:58:58;;;;;;;;;1.33;1.33;;;;;11.96;63.75;100993.34;5033372;28;45386;-79
2022/03/12 02:01:26;;;;;;;;;2.00;2.00;;;;;12.02;63.94;101008.19;5033678;28;45371;-79
2022/03/12 02:03:52;;;;;;;;;2.00;2.00;;;;;12.00;63.79;100989.56;5034000;28;46323;-79
2022/03/12 02:06:19;;;;;;;;;1.00;1.00;;;;;12.14;63.81;101022.81;5033492;28;45423;-79
2022/03/12 02:08:48;;;;;;;;;2.67;1.33;;;;;12.17;63.71;101026.19;5045394;28;45497;-79
2022/03/12 02:11:13;;;;;;;;;3.00;1.67;;;;;12.17;63.67;101018.16;5056964;28;45487;-79
2022/03/12 02:13:40;;;;;;;;;3.33;3.00;;;;;12.05;63.18;101008.06;5043562;28;46482;-79
2022/03/12 02:16:08;;;;;;;;;1.33;1.33;;;;;12.16;63.28;101031.63;5048137;27;45778;-79
2022/03/12 02:18:39;;;;;;;;;4.33;3.00;;;;;12.13;63.20;101035.31;5057059;28;45371;-79
2022/03/12 02:21:05;;;;;;;;;1.00;1.00;;;;;12.00;63.24;101010.06;5056990;28;45364;-79
2022/03/12 02:23:47;;;;;;;;;2.00;1.67;;;;;11.88;63.28;101006.16;5056511;28;45415;-79
2022/03/12 02:26:13;;;;;;;;;3.33;1.67;;;;;12.08;63.53;101036.44;5045870;28;45348;-79
2022/03/12 02:28:38;;;;;;;;;2.33;2.33;;;;;11.90;63.33;101004.28;5009079;28;45422;-79
2022/03/12 02:31:05;;;;;;;;;3.33;2.33;;;;;11.94;63.14;101010.34;5036825;28;45575;-79
2022/03/12 02:33:30;;;;;;;;;1.67;1.67;;;;;11.90;63.18;101014.09;5036677;27;45941;-79
2022/03/12 02:35:57;;;;;;;;;3.67;2.00;;;;;12.02;63.38;101033.09;5043629;28;45413;-79
2022/03/12 02:38:27;;;;;;;;;3.33;3.00;;;;;11.94;63.11;101016.56;5031981;28;45671;-79
2022/03/12 02:40:54;;;;;;;;;2.67;2.33;;;;;11.95;63.00;101012.94;5023721;27;45420;-79
2022/03/12 02:43:26;;;;;;;;;3.00;3.00;;;;;11.92;63.18;101021.09;5042904;28;45973;-79
2022/03/12 02:45:59;;;;;;;;;3.67;3.67;;;;;12.05;63.41;101034.75;5043347;28;45378;-79
2022/03/12 02:48:25;;;;;;;;;1.33;1.33;;;;;12.05;63.58;101024.09;5056337;28;45525;-79
2022/03/12 02:50:52;;;;;;;;;2.67;2.67;;;;;12.13;63.32;101046.00;5037021;28;45485;-79
2022/03/12 02:53:18;;;;;;;;;2.67;2.67;;;;;12.03;63.00;101016.16;5035863;28;45968;-79
2022/03/12 02:55:45;;;;;;;;;3.00;3.00;;;;;12.06;62.88;101027.63;5036613;28;45388;-79
2022/03/12 02:58:10;;;;;;;;;3.00;3.00;;;;;12.01;62.92;101028.72;5036073;27;45365;-79
2022/03/12 03:00:37;;;;;;;;;0.33;0.33;;;;;12.06;62.79;101038.31;5036581;28;45321;-79
2022/03/12 03:03:04;;;;;;;;;2.67;2.00;;;;;12.02;63.12;101048.28;5108563;27;46227;-79
2022/03/12 03:05:38;;;;;;;;;3.00;2.00;;;;;11.94;62.64;101031.72;5122804;27;45500;-79
2022/03/12 03:08:06;;;;;;;;;5.00;3.00;;;;;11.89;62.95;101021.22;5140745;27;45846;-79
2022/03/12 03:10:35;;;;;;;;;4.00;2.67;;;;;12.01;62.91;101044.75;5112770;27;45307;-79
2022/03/12 03:13:20;;;;;;;;;4.00;3.00;;;;;12.02;63.20;101045.59;5041784;28;46002;-79
2022/03/12 03:15:53;;;;;;;;;2.67;2.67;;;;;11.90;62.82;101030.13;5036398;28;45484;-79
2022/03/12 03:18:22;;;;;;;;;3.00;2.67;;;;;11.98;62.89;101039.50;5045968;28;45535;-79
2022/03/12 03:20:49;;;;;;;;;4.00;3.00;;;;;11.92;62.79;101042.47;5055665;28;45332;-79
2022/03/12 03:23:15;;;;;;;;;3.00;2.00;;;;;11.95;63.19;101033.47;5041161;28;45466;-79
2022/03/12 03:25:40;;;;;;;;;4.33;3.00;;;;;11.88;63.00;101029.31;5045648;27;45546;-79
2022/03/12 03:28:08;;;;;;;;;3.67;1.00;;;;;11.96;62.92;101040.53;5086983;27;45414;-79
2022/03/12 03:30:38;;;;;;;;;3.00;3.00;;;;;11.96;62.88;101041.41;5034588;28;45323;-79
2022/03/12 03:33:10;;;;;;;;;3.00;1.00;;;;;11.84;63.03;101025.88;5035509;27;46400;-79
2022/03/12 03:35:39;;;;;;;;;4.00;3.00;;;;;11.97;63.01;101048.47;5035414;28;45322;-79
2022/03/12 03:38:09;;;;;;;;;1.67;1.33;;;;;11.86;62.65;101031.16;5035892;28;45458;-79
2022/03/12 03:40:35;;;;;;;;;2.00;2.00;;;;;11.95;62.83;101052.16;5036065;28;45760;-79
2022/03/12 03:43:01;;;;;;;;;3.33;3.00;;;;;11.92;63.06;101054.97;5035852;28;46232;-79
2022/03/12 03:45:28;;;;;;;;;1.00;1.00;;;;;11.74;62.89;101019.22;5035510;27;45863;-79
2022/03/12 03:47:55;;;;;;;;;3.67;2.67;;;;;11.88;62.91;101058.72;5036223;27;45402;-79
2022/03/12 03:50:25;;;;;;;;;1.33;1.33;;;;;11.71;63.41;101025.56;5035702;28;45853;-79
2022/03/12 03:53:03;;;;;;;;;2.33;2.00;;;;;11.75;63.08;101027.19;5043324;28;45322;-79
2022/03/12 03:55:31;;;;;;;;;5.00;3.00;;;;;11.94;63.05;101050.41;5050827;28;45403;-79
2022/03/12 03:57:58;;;;;;;;;5.00;3.67;;;;;11.94;62.88;101045.94;5035818;27;45455;-79
2022/03/12 04:00:24;;;;;;;;;3.00;3.00;;;;;11.93;63.04;101038.84;5035431;28;45662;-79
2022/03/12 04:02:55;;;;;;;;;3.00;3.00;;;;;11.80;63.32;101038.53;5068955;27;46186;-79
2022/03/12 04:05:22;;;;;;;;;4.33;3.33;;;;;11.88;63.02;101048.03;5035121;28;45405;-79
2022/03/12 04:07:47;;;;;;;;;5.67;2.00;;;;;11.70;62.86;101026.47;5035655;28;45387;-79
2022/03/12 04:10:13;;;;;;;;;2.00;2.00;;;;;11.66;63.29;101024.00;5035578;28;45468;-79
2022/03/12 04:12:39;;;;;;;;;2.67;2.67;;;;;11.66;63.25;101026.69;5035457;28;46097;-79
2022/03/12 04:15:04;;;;;;;;;2.00;2.00;;;;;11.64;63.03;101026.78;5035747;28;45413;-79
2022/03/12 04:17:30;;;;;;;;;2.00;2.00;;;;;11.80;63.74;101059.03;5015665;28;45580;-79
2022/03/12 04:19:55;;;;;;;;;4.67;1.33;;;;;11.83;63.61;101058.88;5016062;28;45555;-79
2022/03/12 04:22:21;;;;;;;;;2.00;2.00;;;;;11.71;63.49;101052.28;5014859;28;45515;-79
2022/03/12 04:24:47;;;;;;;;;4.00;2.00;;;;;11.69;62.99;101048.78;5015578;28;45345;-79
2022/03/12 04:27:12;;;;;;;;;3.67;2.33;;;;;11.80;63.17;101064.38;5021270;28;45539;-79
2022/03/12 04:29:38;;;;;;;;;2.33;2.33;;;;;11.68;63.52;101055.06;5015211;28;45315;-79
2022/03/12 04:32:08;;;;;;;;;2.00;2.00;;;;;11.62;63.41;101034.84;5015189;28;45383;-79
2022/03/12 04:34:34;;;;;;;;;3.00;3.00;;;;;11.81;63.16;101080.28;5015110;28;45434;-79
2022/03/12 04:36:59;;;;;;;;;2.33;2.00;;;;;11.80;63.24;101083.91;5015586;28;45360;-79
2022/03/12 04:39:24;;;;;;;;;2.33;1.33;;;;;11.79;63.21;101086.66;5013838;28;45467;-79
2022/03/12 04:41:49;;;;;;;;;3.00;2.00;;;;;11.81;63.58;101087.44;5015222;28;46239;-79
2022/03/12 04:44:15;;;;;;;;;2.67;2.67;;;;;11.71;63.13;101078.13;5013707;28;48993;-79
2022/03/12 04:46:40;;;;;;;;;2.33;2.00;;;;;11.75;63.54;101090.38;5046534;27;45361;-79
2022/03/12 04:49:06;;;;;;;;;3.00;3.00;;;;;11.72;63.39;101085.16;5049053;27;45455;-79
2022/03/12 04:51:31;;;;;;;;;4.00;1.00;;;;;11.60;63.38;101067.88;5033643;28;45389;-79
2022/03/12 04:53:58;;;;;;;;;2.67;2.67;;;;;11.61;63.49;101069.59;5034723;28;45472;-79
2022/03/12 04:56:25;;;;;;;;;4.00;4.00;;;;;11.69;63.38;101083.50;5035208;28;45510;-79
2022/03/12 04:58:53;;;;;;;;;6.00;3.00;;;;;11.76;63.45;101089.47;5035212;28;45390;-79
2022/03/12 05:01:20;;;;;;;;;4.00;2.00;;;;;11.76;63.49;101084.97;5034685;28;46108;-79
2022/03/12 05:03:46;;;;;;;;;4.00;3.00;;;;;11.80;63.18;101091.06;5034789;28;45514;-79
2022/03/12 05:06:13;;;;;;;;;3.67;2.00;;;;;11.79;63.25;101086.66;5034664;28;45471;-79
2022/03/12 05:08:39;;;;;;;;;3.00;3.00;;;;;11.77;63.14;101097.38;5034637;28;45350;-79
2022/03/12 05:11:05;;;;;;;;;2.00;2.00;;;;;11.59;63.41;101072.34;5034418;28;46124;-79
2022/03/12 05:13:32;;;;;;;;;3.00;3.00;;;;;11.72;63.41;101104.72;5014383;28;45428;-79
2022/03/12 05:16:02;;;;;;;;;2.67;2.67;;;;;11.74;63.66;101107.34;5015150;28;45466;-79
2022/03/12 05:18:28;;;;;;;;;3.00;3.00;;;;;11.61;63.26;101082.94;5014715;28;45479;-79
2022/03/12 05:20:55;;;;;;;;;4.00;3.00;;;;;11.75;63.14;101103.72;5021770;28;46039;-79
2022/03/12 05:23:21;;;;;;;;;4.00;2.33;;;;;11.65;63.33;101092.56;5034424;28;45454;-79
2022/03/12 05:25:48;;;;;;;;;3.00;3.00;;;;;11.67;62.67;101093.38;5034586;28;45460;-79
2022/03/12 05:28:29;;;;;;;;;2.33;2.33;;;;;11.75;62.87;101107.28;5023154;28;45835;-79
2022/03/12 05:30:58;;;;;;;;;5.00;3.33;;;;;11.76;62.91;101108.16;5034301;28;46486;-79
2022/03/12 05:33:25;;;;;;;;;3.67;2.67;;;;;11.74;62.83;101118.88;5034467;28;45443;-79
2022/03/12 05:35:54;;;;;;;;;2.33;2.33;;;;;11.47;62.89;101072.00;5016400;28;45481;-79
2022/03/12 05:38:24;;;;;;;;;6.00;4.00;;;;;11.74;63.03;101113.53;5024447;28;45954;-79
2022/03/12 05:40:50;;;;;;;;;6.00;3.00;;;;;11.49;63.10;101080.81;5016194;28;46015;-79
2022/03/12 05:43:17;;;;;;;;;2.67;2.33;;;;;11.67;63.07;101119.22;5033439;28;45267;-79
2022/03/12 05:45:48;;;;;;;;;2.00;2.00;;;;;11.66;63.57;101120.13;5025683;28;45358;-79
2022/03/12 05:48:15;;;;;;;;;4.00;3.00;;;;;11.55;63.49;101096.56;5014532;28;45333;-79
2022/03/12 05:50:42;;;;;;;;;5.00;4.00;;;;;11.59;63.38;101108.88;5019066;28;45336;-79
2022/03/12 05:53:08;;;;;;;;;4.00;4.00;;;;;11.64;63.16;101122.03;5025525;28;45440;-79
2022/03/12 05:55:35;;;;;;;;;4.00;4.00;;;;;11.60;63.24;101118.59;5034147;28;45453;-79
2022/03/12 05:58:00;;;;;;;;;3.67;3.00;;;;;11.61;63.12;101131.00;5049703;28;45637;-79
2022/03/12 06:00:26;;;;;;;;;6.33;5.00;;;;;11.61;63.50;101131.00;5033757;28;46158;-79
2022/03/12 06:02:51;;;;;;;;;3.67;3.67;;;;;11.57;63.30;101127.63;5021563;28;45396;-79
2022/03/12 06:05:23;;;;;;;;;3.33;3.00;;;;;11.55;63.47;101134.81;5033222;28;45383;-79
2022/03/12 06:07:50;;;;;;;;;6.00;3.00;;;;;11.56;63.40;101138.34;5030797;28;45516;-79
2022/03/12 06:10:24;;;;;;;;;5.33;5.33;;;;;11.54;63.57;101143.78;5012860;28;46137;-79
2022/03/12 06:12:53;;;;;;;;;5.67;4.33;;;;;11.54;63.40;101140.19;5013663;28;45393;-79
2022/03/12 06:15:21;;;;;;;;;5.00;3.67;;;;;11.54;63.06;101140.19;5014084;28;45552;-79
2022/03/12 06:17:49;;;;;;;;;4.00;4.00;;;;;11.45;63.37;101129.91;5013712;28;45889;-79
2022/03/12 06:20:15;;;;;;;;;2.00;2.00;;;;;11.49;63.66;101148.41;5014991;28;46136;-79
2022/03/12 06:22:41;;;;;;;;;5.00;3.67;;;;;11.45;63.68;101159.25;5033520;28;45375;-79
2022/03/12 06:25:09;;;;;;;;;6.33;6.33;;;;;11.46;63.77;101158.34;5033514;28;45401;-79
2022/03/12 06:27:35;;;;;;;;;5.00;5.00;;;;;11.44;63.44;101152.19;5026030;28;45241;-79
2022/03/12 06:30:08;;;;;;;;;4.33;4.33;;;;;11.32;63.82;101135.75;5013400;28;46243;-79
2022/03/12 06:32:35;;;;;;;;;5.00;5.00;;;;;11.18;63.54;101112.28;5013629;28;45479;-79
2022/03/12 06:35:00;;;;;;;;;3.67;2.00;;;;;11.43;63.53;101161.16;5015299;28;45511;-79
2022/03/12 06:37:25;;;;;;;;;3.33;3.33;;;;;11.47;63.50;101162.75;5033932;28;45725;-79
2022/03/12 06:39:51;;;;;;;;;6.00;3.33;;;;;11.43;63.11;101148.66;5033106;28;45470;-79
2022/03/12 06:42:17;;;;;;;;;6.00;5.00;;;;;11.53;63.08;101183.88;5033012;28;45341;-79
2022/03/12 06:44:43;;;;;;;;;6.33;6.00;;;;;11.33;63.04;101157.97;5031945;28;45459;-79
2022/03/12 06:47:10;;;;;;;;;5.67;4.00;;;;;11.48;63.13;101183.19;5033352;28;45417;-79
2022/03/12 06:49:37;;;;;;;;;4.00;4.00;;;;;11.46;62.92;101175.22;5032658;28;46157;-79
2022/03/12 06:52:03;;;;;;;;;4.00;4.00;;;;;11.52;62.79;101187.44;5017185;28;45415;-79
2022/03/12 06:54:28;;;;;;;;;3.67;3.67;;;;;11.54;62.88;101199.81;5032971;28;45260;-79
2022/03/12 06:56:55;;;;;;;;;3.00;3.00;;;;;11.53;62.38;101208.75;5029253;28;45155;-79
2022/03/12 06:59:21;;;;;;;;;3.67;3.00;;;;;11.53;62.35;101213.22;5034284;28;45359;-78
2022/03/12 07:01:46;;;;;;;;;3.00;3.00;;;;;11.42;62.30;101208.31;5019691;28;45412;-79
2022/03/12 07:04:11;;;;;;;;;3.00;3.00;;;;;11.45;62.72;101216.22;5021354;28;45822;-79
2022/03/12 07:06:37;;;;;;;;;2.00;2.00;;;;;11.48;62.35;101231.22;5035780;28;45475;-79
2022/03/12 07:09:03;;;;;;;;;2.67;2.67;;;;;11.46;62.50;101235.75;5027171;28;45396;-79
2022/03/12 07:11:30;;;;;;;;;3.00;3.00;;;;;11.39;62.45;101216.44;5020797;28;45451;-79
2022/03/12 07:13:55;;;;;;;;;44.00;34.50;;;;;11.38;62.43;101231.59;5015442;28;45484;-79
2022/03/12 07:16:21;;;;;;;;;3.33;1.00;;;;;11.36;62.07;101225.44;5021789;28;45387;-79
2022/03/12 07:18:46;;;;;;;;;4.33;4.00;;;;;11.38;62.14;101228.06;5035777;28;45825;-79
2022/03/12 07:21:12;;;;;;;;;4.00;4.00;;;;;11.37;62.34;101218.28;5022758;28;45589;-80
2022/03/12 07:23:37;;;;;;;;;3.67;3.67;;;;;11.26;62.30;101212.50;5032134;28;45470;-80
2022/03/12 07:26:02;;;;;;;;;2.00;2.00;;;;;11.49;62.02;101244.50;5033956;28;45408;-80
2022/03/12 07:28:28;;;;;;;;;3.00;3.00;;;;;11.34;62.04;101226.44;5021774;28;45507;-80
2022/03/12 07:30:54;;;;;;;;;3.33;3.33;;;;;11.36;62.10;101229.91;5035524;28;45488;-80
2022/03/12 07:33:19;;;;;;;;;6.67;3.67;;;;;11.42;61.94;101248.34;5022014;27;45338;-80
2022/03/12 07:35:45;;;;;;;;;4.67;3.00;;;;;11.19;62.08;101199.44;5018557;28;45381;-80
2022/03/12 07:38:11;;;;;;;;;3.33;3.33;;;;;11.43;62.08;101242.09;5027096;28;46184;-80
2022/03/12 07:40:36;;;;;;;;;4.00;3.00;;;;;11.47;61.98;101232.16;5017209;28;45602;-80
2022/03/12 07:43:03;;;;;;;;;4.67;4.67;;;;;11.58;61.92;101252.16;5035557;28;45492;-79
2022/03/12 07:45:29;;;;;;;;;4.00;4.00;;;;;11.54;61.93;101234.53;5033699;28;45508;-80
2022/03/12 07:47:55;;;;;;;;;3.00;3.00;;;;;11.69;61.38;101256.19;5016879;28;45375;-80
2022/03/12 07:50:20;;;;;;;;;3.00;3.00;;;;;11.66;61.51;101242.97;5018339;28;45471;-80
2022/03/12 07:52:46;;;;;;;;;2.67;2.67;;;;;11.76;61.75;101255.03;5009089;27;45523;-81
2022/03/12 07:55:12;;;;;;;;;4.33;4.33;;;;;11.82;61.65;101255.66;5015280;28;45547;-79
2022/03/12 07:57:40;;;;;;;;;4.33;3.00;;;;;11.90;61.20;101251.81;5031455;28;45415;-80
2022/03/12 08:00:08;;;;;;;;;4.00;4.00;;;;;11.88;61.12;101243.88;5031167;28;45400;-80
2022/03/12 08:02:33;;;;;;;;;4.00;4.00;;;;;11.98;61.06;101257.72;5022288;28;45458;-80
2022/03/12 08:04:59;;;;;;;;;3.33;3.33;;;;;11.81;60.94;101235.19;5031611;28;45505;-80
2022/03/12 08:07:26;;;;;;;;;4.00;4.00;;;;;12.00;61.00;101267.41;5034071;28;46005;-80
2022/03/12 08:09:56;;;;;;;;;3.33;3.33;;;;;11.98;60.81;101261.25;5018167;28;45439;-80
2022/03/12 08:12:23;;;;;;;;;3.00;3.00;;;;;12.11;60.91;101282.13;5028882;28;45468;-80
2022/03/12 08:14:48;;;;;;;;;4.67;2.00;;;;;12.14;60.70;101284.66;5025029;28;45453;-80
2022/03/12 08:17:14;;;;;;;;;7.00;5.33;;;;;11.95;60.62;101258.72;5021642;28;45846;-79
2022/03/12 08:19:39;;;;;;;;;3.00;2.00;;;;;12.13;60.69;101297.16;5031709;28;45785;-79
2022/03/12 08:22:05;;;;;;;;;3.00;3.00;;;;;12.00;60.80;101270.06;5028340;28;45401;-79
2022/03/12 08:24:30;;;;;;;;;6.00;4.00;;;;;12.11;60.38;101293.69;5023411;28;45594;-79
2022/03/12 08:26:55;;;;;;;;;3.33;1.67;;;;;12.13;60.28;101301.66;5025232;28;45701;-79
2022/03/12 08:29:21;;;;;;;;;2.33;2.33;;;;;12.12;60.33;101306.09;5032184;28;45832;-79
2022/03/12 08:31:48;;;;;;;;;3.00;3.00;;;;;12.07;60.46;101301.88;5034282;27;45409;-79
2022/03/12 08:34:14;;;;;;;;;4.00;4.00;;;;;12.15;60.26;101319.34;5014962;28;45404;-79
2022/03/12 08:36:41;;;;;;;;;3.00;3.00;;;;;12.14;60.28;101322.94;5019695;28;46268;-80
2022/03/12 08:39:06;;;;;;;;;4.00;4.00;;;;;11.90;60.54;101286.56;5021856;28;45345;-79
2022/03/12 08:41:34;;;;;;;;;4.33;3.00;;;;;11.92;60.50;101301.59;5033307;28;45983;-80
2022/03/12 08:43:59;;;;;;;;;4.33;2.67;;;;;12.10;60.71;101317.78;5021178;28;45474;-79
2022/03/12 08:46:25;;;;;;;;;4.33;3.33;;;;;11.77;60.53;101268.28;5020088;28;46202;-79
2022/03/12 08:48:50;;;;;;;;;4.00;4.00;;;;;12.13;60.55;101326.56;5024579;28;49785;-79
2022/03/12 08:51:15;;;;;;;;;4.67;4.00;;;;;11.97;60.45;101290.72;5028113;28;45721;-80
2022/03/12 08:53:41;;;;;;;;;4.33;4.33;;;;;12.11;60.09;101311.53;5031248;28;45721;-80
2022/03/12 08:56:06;;;;;;;;;4.33;2.00;;;;;11.89;60.39;101284.78;5030884;28;45786;-79
2022/03/12 08:58:32;;;;;;;;;3.33;3.33;;;;;12.04;60.41;101316.25;5032949;28;45465;-80
2022/03/12 09:00:59;;;;;;;;;3.00;3.00;;;;;12.18;60.56;101323.69;5023611;28;45371;-79
2022/03/12 09:03:25;;;;;;;;;3.00;3.00;;;;;12.19;60.20;101314.72;5028707;28;45550;-79
2022/03/12 09:05:51;;;;;;;;;3.33;2.67;;;;;11.97;60.60;101277.34;5032776;27;45483;-79
2022/03/12 09:08:17;;;;;;;;;2.67;2.67;;;;;12.20;60.08;101308.47;5024682;27;45482;-79
2022/03/12 09:10:43;;;;;;;;;4.67;3.67;;;;;12.28;60.56;101319.69;5021392;28;45439;-79
2022/03/12 09:13:13;;;;;;;;;1.67;1.67;;;;;12.31;60.01;101322.25;5026443;28;45485;-79
2022/03/12 09:15:39;;;;;;;;;5.33;3.00;;;;;12.37;60.08;101326.47;5011935;28;46295;-79
2022/03/12 09:18:05;;;;;;;;;3.67;2.67;;;;;12.40;59.98;101319.19;5022073;28;45605;-79
2022/03/12 09:20:31;;;;;;;;;3.00;2.00;;;;;12.39;59.69;101305.91;5021554;28;45420;-79
2022/03/12 09:22:56;;;;;;;;;1.67;1.67;;;;;12.44;59.65;101314.59;5027310;28;45430;-79
2022/03/12 09:25:27;;;;;;;;;4.33;2.67;;;;;12.53;59.81;101308.84;5013204;28;47550;-81
2022/03/12 09:27:54;;;;;;;;;3.33;3.33;;;;;12.46;59.58;101294.88;5017234;27;45689;-80
2022/03/12 09:30:25;;;;;;;;;0.67;0.67;;;;;12.63;59.59;101306.66;5008558;28;45430;-80
2022/03/12 09:32:53;;;;;;;;;3.00;3.00;;;;;12.71;59.82;101311.66;5015880;28;45415;-80
2022/03/12 09:35:20;;;;;;;;;2.67;2.67;;;;;12.76;59.20;101317.66;5021703;28;47366;-80
2022/03/12 09:37:50;;;;;;;;;3.33;3.00;;;;;12.78;58.89;101316.69;5027474;28;45433;-80
2022/03/12 09:40:16;;;;;;;;;3.33;3.33;;;;;12.75;58.77;101306.09;5010406;28;45493;-80
2022/03/12 09:42:42;;;;;;;;;4.00;3.67;;;;;12.77;58.77;101298.88;5015541;28;45632;-88
2022/03/12 09:45:13;;;;;;;;;8.00;3.67;;;;;13.00;58.97;101313.94;5012142;28;47318;-81
2022/03/12 09:47:39;;;;;;;;;5.00;3.00;;;;;13.04;58.47;101312.84;5049925;27;45388;-81
2022/03/12 09:50:06;;;;;;;;;8.00;4.67;;;;;13.02;58.38;101305.84;5033797;28;45457;-81
2022/03/12 09:52:32;;;;;;;;;6.00;4.00;;;;;13.11;58.31;101300.06;5024828;28;45591;-81
2022/03/12 09:54:57;;;;;;;;;7.00;5.67;;;;;13.28;58.20;101307.34;5016723;28;45985;-81
2022/03/12 09:57:22;;;;;;;;;4.00;3.00;;;;;13.42;57.55;101320.97;5020747;28;51223;-85
2022/03/12 09:59:48;;;;;;;;;5.33;3.67;;;;;13.42;57.37;101279.94;5029826;28;45263;-84
2022/03/12 10:02:13;;;;;;;;;2.00;2.00;;;;;13.75;56.87;101306.94;5063520;27;45312;-84
2022/03/12 10:04:39;;;;;;;;;4.00;3.00;;;;;13.80;56.37;101279.91;5118837;27;45582;-85
2022/03/12 10:07:08;;;;;;;;;4.00;3.67;;;;;14.05;56.38;101279.59;5041227;27;45292;-86
2022/03/12 10:09:34;;;;;;;;;3.00;3.00;;;;;14.44;55.57;101302.66;5033659;28;45366;-84
2022/03/12 10:12:00;;;;;;;;;5.00;5.00;;;;;14.51;54.87;101301.38;5014930;28;45892;-82
2022/03/12 10:14:26;;;;;;;;;3.67;3.67;;;;;14.48;55.05;101264.84;5013905;28;46066;-86
2022/03/12 10:16:51;;;;;;;;;4.33;3.33;;;;;14.80;54.43;101302.59;5013537;28;45350;-80
2022/03/12 10:19:19;;;;;;;;;2.00;2.00;;;;;14.22;53.97;101172.34;5015677;28;45534;-81
2022/03/12 10:21:45;;;;;;;;;2.00;2.00;;;;;15.03;53.53;101255.75;5030290;28;45713;-82
2022/03/12 10:24:12;;;;;;;;;3.33;2.00;;;;;15.44;53.01;101289.34;5033132;28;45461;-81
2022/03/12 10:26:38;;;;;;;;;2.33;2.33;;;;;15.56;52.70;101291.34;5033141;28;45311;-81
2022/03/12 10:29:05;;;;;;;;;4.00;3.00;;;;;15.55;51.89;101260.91;5022264;28;45439;-81
2022/03/12 10:31:30;;;;;;;;;10.67;10.67;;;;;15.73;52.06;101274.28;5016910;28;45316;-81
2022/03/12 10:34:21;;;;;;;;;7.67;4.00;;;;;15.80;51.95;101262.22;5018789;28;45355;-81
2022/03/12 10:36:49;;;;;;;;;9.00;5.67;;;;;15.75;51.86;101265.19;5027253;28;45512;-81
2022/03/12 10:39:15;;;;;;;;;4.00;4.00;;;;;15.79;51.73;101273.94;5029858;28;45320;-81
2022/03/12 10:41:41;;;;;;;;;11.33;10.33;;;;;15.72;51.98;101254.63;5018704;28;45630;-81
2022/03/12 10:44:07;;;;;;;;;5.33;3.33;;;;;15.80;51.94;101271.19;5032421;28;45410;-81
2022/03/12 10:46:34;;;;;;;;;92.25;88.50;;;;;15.91;51.92;101275.06;5016524;28;45930;-81
2022/03/12 10:49:02;;;;;;;;;7.00;7.00;;;;;15.87;51.82;101266.31;5030847;28;45448;-81
2022/03/12 10:51:34;;;;;;;;;28.67;27.00;;;;;15.87;51.59;101273.50;5032849;28;45526;-81
2022/03/12 10:54:08;;;;;;;;;4.67;4.00;;;;;15.94;51.62;101270.38;5018610;28;46031;-81
2022/03/12 10:56:48;;;;;;;;;5.33;4.00;;;;;15.88;51.60;101267.19;5020772;28;45435;-80
2022/03/12 10:59:21;;;;;;;;;4.33;3.67;;;;;15.81;51.88;101263.97;5016236;28;45369;-81
2022/03/12 11:01:48;;;;;;;;;6.00;6.00;;;;;15.72;51.50;101272.56;5032139;27;45469;-81
2022/03/12 11:04:24;;;;;;;;;24.33;20.67;;;;;15.88;51.65;101267.19;5031028;28;45359;-81
2022/03/12 11:06:51;;;;;;;;;11.67;10.33;;;;;15.93;51.50;101265.09;5015840;28;45418;-81
2022/03/12 11:09:30;;;;;;;;;5.00;5.00;;;;;15.92;51.19;101255.28;5031522;27;45537;-81
2022/03/12 11:11:57;;;;;;;;;9.67;8.00;;;;;15.74;51.74;101233.91;5036256;28;45326;-81
2022/03/12 11:14:23;;;;;;;;;11.33;10.33;;;;;15.83;51.57;101251.31;5035960;28;45436;-82
2022/03/12 11:16:52;;;;;;;;;4.00;4.00;;;;;15.56;51.76;101216.97;5035626;28;45416;-81
2022/03/12 11:19:37;;;;;;;;;4.33;4.00;;;;;15.62;52.18;101243.50;5037475;28;45502;-82
2022/03/12 11:22:08;;;;;;;;;16.00;14.67;;;;;15.51;52.34;101245.06;5046148;28;45561;-82
2022/03/12 11:24:52;;;;;;;;;8.33;6.00;;;;;15.10;51.95;101195.41;5035901;27;45455;-81
2022/03/12 11:27:50;;;;;;;;;11.00;8.00;;;;;15.36;52.67;101244.09;5030265;27;45581;-81